sensor_id;sensor_type;location;lat;lon;timestamp;temperature;humidity
14057;DHT22;7103;54.300;10.180;2023-12-28T00:02:14;7.30;1.00
14057;DHT22;7103;54.300;10.180;2023-12-28T00:04:41;7.20;1.00
14057;DHT22;7103;54.300;10.180;2023-12-28T00:07:08;7.20;1.00
14057;DHT22;7103;54.300;10.180;2023-12-28T00:09:35;7.20;1.00
14057;DHT22;7103;54.300;10.180;2023-12-28T00:12:02;7.20;1.00
14057;DHT22;7103;54.300;10.180;2023-12-28T00:14:29;7.20;1.00
14057;DHT22;7103;54.300;10.180;2023-12-28T00:16:56;7.30;1.00
14057;DHT22;7103;54.300;10.180;2023-12-28T00:19:23;7.20;1.00
14057;DHT22;7103;54.300;10.180;2023-12-28T00:21:50;7.20;1.00
14057;DHT22;7103;54.300;10.180;2023-12-28T00:24:20;7.20;1.00
14057;DHT22;7103;54.300;10.180;2023-12-28T00:26:48;7.20;1.00
14057;DHT22;7103;54.300;10.180;2023-12-28T00:29:15;7.30;1.00
14057;DHT22;7103;54.300;10.180;2023-12-28T00:31:42;7.30;1.00
14057;DHT22;7103;54.300;10.180;2023-12-28T00:34:09;7.20;1.00
14057;DHT22;7103;54.300;10.180;2023-12-28T00:36:36;7.30;1.00
14057;DHT22;7103;54.300;10.180;2023-12-28T00:39:03;7.40;1.00
14057;DHT22;7103;54.300;10.180;2023-12-28T00:41:30;7.30;1.00
14057;DHT22;7103;54.300;10.180;2023-12-28T00:43:57;7.50;1.00
14057;DHT22;7103;54.300;10.180;2023-12-28T00:46:23;7.40;1.00
14057;DHT22;7103;54.300;10.180;2023-12-28T00:48:50;7.40;1.00
14057;DHT22;7103;54.300;10.180;2023-12-28T00:51:17;7.40;1.00
14057;DHT22;7103;54.300;10.180;2023-12-28T00:53:44;7.50;1.00
14057;DHT22;7103;54.300;10.180;2023-12-28T00:56:11;7.50;1.00
14057;DHT22;7103;54.300;10.180;2023-12-28T00:58:41;7.60;1.00
14057;DHT22;7103;54.300;10.180;2023-12-28T01:01:10;7.60;1.00
14057;DHT22;7103;54.300;10.180;2023-12-28T01:03:37;7.70;1.00
14057;DHT22;7103;54.300;10.180;2023-12-28T01:06:07;7.80;1.00
14057;DHT22;7103;54.300;10.180;2023-12-28T01:08:34;7.70;1.00
14057;DHT22;7103;54.300;10.180;2023-12-28T01:11:01;7.70;1.00
14057;DHT22;7103;54.300;10.180;2023-12-28T01:13:29;7.70;1.00
14057;DHT22;7103;54.300;10.180;2023-12-28T01:15:57;7.80;1.00
14057;DHT22;7103;54.300;10.180;2023-12-28T01:18:24;8.00;1.00
14057;DHT22;7103;54.300;10.180;2023-12-28T01:20:52;7.80;1.00
14057;DHT22;7103;54.300;10.180;2023-12-28T01:23:18;7.80;1.00
14057;DHT22;7103;54.300;10.180;2023-12-28T01:25:45;7.90;1.00
14057;DHT22;7103;54.300;10.180;2023-12-28T01:28:12;7.90;1.00
14057;DHT22;7103;54.300;10.180;2023-12-28T01:30:39;8.00;1.00
14057;DHT22;7103;54.300;10.180;2023-12-28T01:33:06;7.90;1.00
14057;DHT22;7103;54.300;10.180;2023-12-28T01:35:33;7.90;1.00
14057;DHT22;7103;54.300;10.180;2023-12-28T01:38:00;8.00;1.00
14057;DHT22;7103;54.300;10.180;2023-12-28T01:40:28;8.00;1.00
14057;DHT22;7103;54.300;10.180;2023-12-28T01:42:55;8.00;1.00
14057;DHT22;7103;54.300;10.180;2023-12-28T01:45:22;8.00;1.00
14057;DHT22;7103;54.300;10.180;2023-12-28T01:47:50;8.00;1.00
14057;DHT22;7103;54.300;10.180;2023-12-28T01:50:19;8.00;1.00
14057;DHT22;7103;54.300;10.180;2023-12-28T01:52:47;8.00;1.00
14057;DHT22;7103;54.300;10.180;2023-12-28T01:55:14;8.00;1.00
14057;DHT22;7103;54.300;10.180;2023-12-28T01:57:41;8.10;1.00
14057;DHT22;7103;54.300;10.180;2023-12-28T02:00:09;8.10;1.00
14057;DHT22;7103;54.300;10.180;2023-12-28T02:02:36;8.20;1.00
14057;DHT22;7103;54.300;10.180;2023-12-28T02:05:03;8.20;1.00
14057;DHT22;7103;54.300;10.180;2023-12-28T02:07:32;8.20;1.00
14057;DHT22;7103;54.300;10.180;2023-12-28T02:09:59;8.30;1.00
14057;DHT22;7103;54.300;10.180;2023-12-28T02:12:26;8.20;1.00
14057;DHT22;7103;54.300;10.180;2023-12-28T02:14:53;8.30;1.00
14057;DHT22;7103;54.300;10.180;2023-12-28T02:17:43;8.30;1.00
14057;DHT22;7103;54.300;10.180;2023-12-28T02:20:13;8.30;1.00
14057;DHT22;7103;54.300;10.180;2023-12-28T02:22:41;8.30;1.00
14057;DHT22;7103;54.300;10.180;2023-12-28T02:25:10;8.30;1.00
14057;DHT22;7103;54.300;10.180;2023-12-28T02:30:08;8.40;1.00
14057;DHT22;7103;54.300;10.180;2023-12-28T02:33:19;8.40;1.00
14057;DHT22;7103;54.300;10.180;2023-12-28T02:35:34;8.30;1.00
14057;DHT22;7103;54.300;10.180;2023-12-28T02:38:10;8.30;1.00
14057;DHT22;7103;54.300;10.180;2023-12-28T02:40:39;8.30;1.00
14057;DHT22;7103;54.300;10.180;2023-12-28T02:43:07;8.30;1.00
14057;DHT22;7103;54.300;10.180;2023-12-28T02:45:34;8.30;1.00
14057;DHT22;7103;54.300;10.180;2023-12-28T02:48:02;8.40;1.00
14057;DHT22;7103;54.300;10.180;2023-12-28T02:50:31;8.40;1.00
14057;DHT22;7103;54.300;10.180;2023-12-28T02:52:58;8.40;1.00
14057;DHT22;7103;54.300;10.180;2023-12-28T02:55:25;8.40;1.00
14057;DHT22;7103;54.300;10.180;2023-12-28T02:57:54;8.40;1.00
14057;DHT22;7103;54.300;10.180;2023-12-28T03:00:28;8.40;1.00
14057;DHT22;7103;54.300;10.180;2023-12-28T03:02:56;8.50;1.00
14057;DHT22;7103;54.300;10.180;2023-12-28T03:05:23;8.40;1.00
14057;DHT22;7103;54.300;10.180;2023-12-28T03:07:50;8.50;1.00
14057;DHT22;7103;54.300;10.180;2023-12-28T03:10:17;8.50;1.00
14057;DHT22;7103;54.300;10.180;2023-12-28T03:12:44;8.50;1.00
14057;DHT22;7103;54.300;10.180;2023-12-28T03:15:11;8.50;1.00
14057;DHT22;7103;54.300;10.180;2023-12-28T03:17:37;8.50;1.00
14057;DHT22;7103;54.300;10.180;2023-12-28T03:20:05;8.50;1.00
14057;DHT22;7103;54.300;10.180;2023-12-28T03:22:32;8.50;1.00
14057;DHT22;7103;54.300;10.180;2023-12-28T03:24:59;8.50;1.00
14057;DHT22;7103;54.300;10.180;2023-12-28T03:27:27;8.50;1.00
14057;DHT22;7103;54.300;10.180;2023-12-28T03:29:54;8.50;1.00
14057;DHT22;7103;54.300;10.180;2023-12-28T03:32:20;8.50;1.00
14057;DHT22;7103;54.300;10.180;2023-12-28T03:34:47;8.50;1.00
14057;DHT22;7103;54.300;10.180;2023-12-28T03:37:14;8.40;1.00
14057;DHT22;7103;54.300;10.180;2023-12-28T03:39:41;8.50;1.00
14057;DHT22;7103;54.300;10.180;2023-12-28T03:42:09;8.50;1.00
14057;DHT22;7103;54.300;10.180;2023-12-28T03:44:36;8.40;1.00
14057;DHT22;7103;54.300;10.180;2023-12-28T03:47:03;8.40;1.00
14057;DHT22;7103;54.300;10.180;2023-12-28T03:49:29;8.40;1.00
14057;DHT22;7103;54.300;10.180;2023-12-28T03:51:56;8.40;1.00
14057;DHT22;7103;54.300;10.180;2023-12-28T03:54:23;8.50;1.00
14057;DHT22;7103;54.300;10.180;2023-12-28T03:56:50;8.60;1.00
14057;DHT22;7103;54.300;10.180;2023-12-28T03:59:17;8.50;1.00
14057;DHT22;7103;54.300;10.180;2023-12-28T04:01:44;8.60;1.00
14057;DHT22;7103;54.300;10.180;2023-12-28T04:04:12;8.60;1.00
14057;DHT22;7103;54.300;10.180;2023-12-28T04:06:39;8.50;1.00
14057;DHT22;7103;54.300;10.180;2023-12-28T04:09:06;8.70;1.00
14057;DHT22;7103;54.300;10.180;2023-12-28T04:11:33;8.60;1.00
14057;DHT22;7103;54.300;10.180;2023-12-28T04:14:00;8.60;1.00
14057;DHT22;7103;54.300;10.180;2023-12-28T04:16:27;8.50;1.00
14057;DHT22;7103;54.300;10.180;2023-12-28T04:18:54;8.50;1.00
14057;DHT22;7103;54.300;10.180;2023-12-28T04:21:21;8.40;1.00
14057;DHT22;7103;54.300;10.180;2023-12-28T04:23:48;8.40;1.00
14057;DHT22;7103;54.300;10.180;2023-12-28T04:26:18;8.40;1.00
14057;DHT22;7103;54.300;10.180;2023-12-28T04:28:46;8.40;1.00
14057;DHT22;7103;54.300;10.180;2023-12-28T04:31:13;8.30;1.00
14057;DHT22;7103;54.300;10.180;2023-12-28T04:33:40;8.30;1.00
14057;DHT22;7103;54.300;10.180;2023-12-28T04:36:08;8.20;1.00
14057;DHT22;7103;54.300;10.180;2023-12-28T04:38:35;8.20;1.00
14057;DHT22;7103;54.300;10.180;2023-12-28T04:41:01;8.40;1.00
14057;DHT22;7103;54.300;10.180;2023-12-28T04:43:28;8.20;1.00
14057;DHT22;7103;54.300;10.180;2023-12-28T04:45:55;8.10;1.00
14057;DHT22;7103;54.300;10.180;2023-12-28T04:48:22;8.10;1.00
14057;DHT22;7103;54.300;10.180;2023-12-28T04:50:52;8.10;1.00
14057;DHT22;7103;54.300;10.180;2023-12-28T04:53:19;8.00;1.00
14057;DHT22;7103;54.300;10.180;2023-12-28T04:55:46;8.00;1.00
14057;DHT22;7103;54.300;10.180;2023-12-28T04:58:14;8.20;1.00
14057;DHT22;7103;54.300;10.180;2023-12-28T05:00:41;8.10;1.00
14057;DHT22;7103;54.300;10.180;2023-12-28T05:03:08;8.10;1.00
14057;DHT22;7103;54.300;10.180;2023-12-28T05:05:35;8.00;1.00
14057;DHT22;7103;54.300;10.180;2023-12-28T05:08:01;8.00;1.00
14057;DHT22;7103;54.300;10.180;2023-12-28T05:10:28;7.90;1.00
14057;DHT22;7103;54.300;10.180;2023-12-28T05:12:55;8.00;1.00
14057;DHT22;7103;54.300;10.180;2023-12-28T05:15:28;8.10;1.00
14057;DHT22;7103;54.300;10.180;2023-12-28T05:17:55;8.30;1.00
14057;DHT22;7103;54.300;10.180;2023-12-28T05:20:23;8.10;1.00
14057;DHT22;7103;54.300;10.180;2023-12-28T05:22:50;8.20;1.00
14057;DHT22;7103;54.300;10.180;2023-12-28T05:25:17;8.20;1.00
14057;DHT22;7103;54.300;10.180;2023-12-28T05:27:44;8.00;1.00
14057;DHT22;7103;54.300;10.180;2023-12-28T05:30:11;8.00;1.00
14057;DHT22;7103;54.300;10.180;2023-12-28T05:32:39;8.00;1.00
14057;DHT22;7103;54.300;10.180;2023-12-28T05:35:06;7.90;1.00
14057;DHT22;7103;54.300;10.180;2023-12-28T05:37:34;8.00;1.00
14057;DHT22;7103;54.300;10.180;2023-12-28T05:40:00;8.00;1.00
14057;DHT22;7103;54.300;10.180;2023-12-28T05:42:28;8.00;1.00
14057;DHT22;7103;54.300;10.180;2023-12-28T05:44:55;8.10;1.00
14057;DHT22;7103;54.300;10.180;2023-12-28T05:47:21;8.00;1.00
14057;DHT22;7103;54.300;10.180;2023-12-28T05:49:48;8.10;1.00
14057;DHT22;7103;54.300;10.180;2023-12-28T05:52:15;8.00;1.00
14057;DHT22;7103;54.300;10.180;2023-12-28T05:54:45;8.20;1.00
14057;DHT22;7103;54.300;10.180;2023-12-28T05:57:12;8.30;1.00
14057;DHT22;7103;54.300;10.180;2023-12-28T05:59:39;8.30;1.00
14057;DHT22;7103;54.300;10.180;2023-12-28T06:02:06;8.40;1.00
14057;DHT22;7103;54.300;10.180;2023-12-28T06:04:33;8.40;1.00
14057;DHT22;7103;54.300;10.180;2023-12-28T06:07:05;8.40;1.00
14057;DHT22;7103;54.300;10.180;2023-12-28T06:09:32;8.40;1.00
14057;DHT22;7103;54.300;10.180;2023-12-28T06:11:59;8.40;1.00
14057;DHT22;7103;54.300;10.180;2023-12-28T06:14:26;8.40;1.00
14057;DHT22;7103;54.300;10.180;2023-12-28T06:16:53;8.40;1.00
14057;DHT22;7103;54.300;10.180;2023-12-28T06:19:20;8.60;1.00
14057;DHT22;7103;54.300;10.180;2023-12-28T06:21:48;8.60;1.00
14057;DHT22;7103;54.300;10.180;2023-12-28T06:24:16;8.60;1.00
14057;DHT22;7103;54.300;10.180;2023-12-28T06:26:43;8.60;1.00
14057;DHT22;7103;54.300;10.180;2023-12-28T06:29:11;8.60;1.00
14057;DHT22;7103;54.300;10.180;2023-12-28T06:31:38;8.70;1.00
14057;DHT22;7103;54.300;10.180;2023-12-28T06:34:06;8.70;99.90
14057;DHT22;7103;54.300;10.180;2023-12-28T06:36:34;8.60;99.90
14057;DHT22;7103;54.300;10.180;2023-12-28T06:39:01;8.70;99.90
14057;DHT22;7103;54.300;10.180;2023-12-28T06:41:28;8.70;99.90
14057;DHT22;7103;54.300;10.180;2023-12-28T06:43:54;8.70;99.90
14057;DHT22;7103;54.300;10.180;2023-12-28T06:46:22;8.80;99.90
14057;DHT22;7103;54.300;10.180;2023-12-28T06:48:49;8.80;99.90
14057;DHT22;7103;54.300;10.180;2023-12-28T06:51:17;9.00;99.90
14057;DHT22;7103;54.300;10.180;2023-12-28T06:53:46;8.90;99.90
14057;DHT22;7103;54.300;10.180;2023-12-28T06:56:13;8.90;99.90
14057;DHT22;7103;54.300;10.180;2023-12-28T06:58:40;8.90;99.90
14057;DHT22;7103;54.300;10.180;2023-12-28T07:01:07;9.00;99.90
14057;DHT22;7103;54.300;10.180;2023-12-28T07:03:35;8.90;99.90
14057;DHT22;7103;54.300;10.180;2023-12-28T07:06:02;9.10;99.90
14057;DHT22;7103;54.300;10.180;2023-12-28T07:08:30;9.00;99.90
14057;DHT22;7103;54.300;10.180;2023-12-28T07:11:02;8.90;99.90
14057;DHT22;7103;54.300;10.180;2023-12-28T07:13:30;8.90;99.90
14057;DHT22;7103;54.300;10.180;2023-12-28T07:15:57;9.00;99.90
14057;DHT22;7103;54.300;10.180;2023-12-28T07:18:26;9.00;99.90
14057;DHT22;7103;54.300;10.180;2023-12-28T07:20:54;9.10;99.90
14057;DHT22;7103;54.300;10.180;2023-12-28T07:23:21;9.20;99.90
14057;DHT22;7103;54.300;10.180;2023-12-28T07:25:48;9.10;99.90
14057;DHT22;7103;54.300;10.180;2023-12-28T07:28:15;9.20;99.90
14057;DHT22;7103;54.300;10.180;2023-12-28T07:30:41;9.20;99.90
14057;DHT22;7103;54.300;10.180;2023-12-28T07:33:09;9.30;99.90
14057;DHT22;7103;54.300;10.180;2023-12-28T07:35:36;9.30;99.90
14057;DHT22;7103;54.300;10.180;2023-12-28T07:38:03;9.30;99.90
14057;DHT22;7103;54.300;10.180;2023-12-28T07:40:30;9.40;99.90
14057;DHT22;7103;54.300;10.180;2023-12-28T07:42:57;9.40;99.90
14057;DHT22;7103;54.300;10.180;2023-12-28T07:45:24;9.50;99.90
14057;DHT22;7103;54.300;10.180;2023-12-28T07:47:52;9.40;99.90
14057;DHT22;7103;54.300;10.180;2023-12-28T07:50:19;9.40;99.90
14057;DHT22;7103;54.300;10.180;2023-12-28T07:52:47;9.50;99.90
14057;DHT22;7103;54.300;10.180;2023-12-28T07:55:14;9.40;99.90
14057;DHT22;7103;54.300;10.180;2023-12-28T07:57:42;9.60;99.90
14057;DHT22;7103;54.300;10.180;2023-12-28T08:00:10;9.50;99.90
14057;DHT22;7103;54.300;10.180;2023-12-28T08:02:37;9.50;99.90
14057;DHT22;7103;54.300;10.180;2023-12-28T08:05:04;9.60;99.90
14057;DHT22;7103;54.300;10.180;2023-12-28T08:07:31;9.50;99.90
14057;DHT22;7103;54.300;10.180;2023-12-28T08:09:59;9.50;99.90
14057;DHT22;7103;54.300;10.180;2023-12-28T08:12:26;9.50;99.90
14057;DHT22;7103;54.300;10.180;2023-12-28T08:14:56;9.70;99.90
14057;DHT22;7103;54.300;10.180;2023-12-28T08:17:24;9.60;99.90
14057;DHT22;7103;54.300;10.180;2023-12-28T08:19:50;9.60;99.90
14057;DHT22;7103;54.300;10.180;2023-12-28T08:22:18;9.60;99.90
14057;DHT22;7103;54.300;10.180;2023-12-28T08:24:45;9.60;99.90
14057;DHT22;7103;54.300;10.180;2023-12-28T08:27:13;9.70;99.90
14057;DHT22;7103;54.300;10.180;2023-12-28T08:29:41;9.70;99.90
14057;DHT22;7103;54.300;10.180;2023-12-28T08:32:09;9.70;99.90
14057;DHT22;7103;54.300;10.180;2023-12-28T08:34:37;9.70;99.90
14057;DHT22;7103;54.300;10.180;2023-12-28T08:37:04;9.90;99.90
14057;DHT22;7103;54.300;10.180;2023-12-28T08:39:31;9.90;99.90
14057;DHT22;7103;54.300;10.180;2023-12-28T08:41:58;9.70;99.90
14057;DHT22;7103;54.300;10.180;2023-12-28T08:44:25;9.80;99.90
14057;DHT22;7103;54.300;10.180;2023-12-28T08:46:52;9.70;99.90
14057;DHT22;7103;54.300;10.180;2023-12-28T08:49:19;9.70;99.90
14057;DHT22;7103;54.300;10.180;2023-12-28T08:51:46;9.90;99.90
14057;DHT22;7103;54.300;10.180;2023-12-28T08:54:13;9.80;99.90
14057;DHT22;7103;54.300;10.180;2023-12-28T08:56:41;9.90;99.90
14057;DHT22;7103;54.300;10.180;2023-12-28T08:59:07;9.80;99.90
14057;DHT22;7103;54.300;10.180;2023-12-28T09:01:34;9.90;99.90
14057;DHT22;7103;54.300;10.180;2023-12-28T09:04:01;9.90;99.90
14057;DHT22;7103;54.300;10.180;2023-12-28T09:06:28;9.90;99.90
14057;DHT22;7103;54.300;10.180;2023-12-28T09:08:55;9.80;99.90
14057;DHT22;7103;54.300;10.180;2023-12-28T09:11:23;9.80;99.90
14057;DHT22;7103;54.300;10.180;2023-12-28T09:13:50;9.80;99.90
14057;DHT22;7103;54.300;10.180;2023-12-28T09:16:17;9.80;99.90
14057;DHT22;7103;54.300;10.180;2023-12-28T09:18:44;9.90;99.90
14057;DHT22;7103;54.300;10.180;2023-12-28T09:21:11;9.90;99.90
14057;DHT22;7103;54.300;10.180;2023-12-28T09:23:38;10.00;99.90
14057;DHT22;7103;54.300;10.180;2023-12-28T09:26:07;10.00;99.90
14057;DHT22;7103;54.300;10.180;2023-12-28T09:28:34;10.10;99.90
14057;DHT22;7103;54.300;10.180;2023-12-28T09:31:02;10.00;99.90
14057;DHT22;7103;54.300;10.180;2023-12-28T09:33:29;10.00;99.90
14057;DHT22;7103;54.300;10.180;2023-12-28T09:35:56;10.10;99.90
14057;DHT22;7103;54.300;10.180;2023-12-28T09:38:23;10.20;99.90
14057;DHT22;7103;54.300;10.180;2023-12-28T09:40:52;10.30;99.90
14057;DHT22;7103;54.300;10.180;2023-12-28T09:43:37;10.30;99.90
14057;DHT22;7103;54.300;10.180;2023-12-28T09:46:08;10.30;99.90
14057;DHT22;7103;54.300;10.180;2023-12-28T09:48:37;10.40;99.90
14057;DHT22;7103;54.300;10.180;2023-12-28T09:51:05;10.40;99.90
14057;DHT22;7103;54.300;10.180;2023-12-28T09:53:34;10.40;99.90
14057;DHT22;7103;54.300;10.180;2023-12-28T09:56:02;10.40;99.90
14057;DHT22;7103;54.300;10.180;2023-12-28T09:58:30;10.40;99.90
14057;DHT22;7103;54.300;10.180;2023-12-28T10:00:59;10.50;99.90
14057;DHT22;7103;54.300;10.180;2023-12-28T10:03:27;10.40;99.90
14057;DHT22;7103;54.300;10.180;2023-12-28T10:05:54;10.40;99.90
14057;DHT22;7103;54.300;10.180;2023-12-28T10:08:21;10.50;99.90
14057;DHT22;7103;54.300;10.180;2023-12-28T10:10:50;10.60;99.90
14057;DHT22;7103;54.300;10.180;2023-12-28T10:13:21;10.60;99.90
14057;DHT22;7103;54.300;10.180;2023-12-28T10:15:48;10.60;99.90
14057;DHT22;7103;54.300;10.180;2023-12-28T10:18:19;10.50;99.90
14057;DHT22;7103;54.300;10.180;2023-12-28T10:20:50;10.60;96.70
14057;DHT22;7103;54.300;10.180;2023-12-28T10:23:21;10.70;85.50
14057;DHT22;7103;54.300;10.180;2023-12-28T10:25:48;10.70;78.70
14057;DHT22;7103;54.300;10.180;2023-12-28T10:28:19;10.80;72.50
14057;DHT22;7103;54.300;10.180;2023-12-28T10:30:46;10.80;61.60
14057;DHT22;7103;54.300;10.180;2023-12-28T10:33:14;10.80;52.70
14057;DHT22;7103;54.300;10.180;2023-12-28T10:35:44;10.80;39.50
14057;DHT22;7103;54.300;10.180;2023-12-28T10:38:13;10.90;21.90
14057;DHT22;7103;54.300;10.180;2023-12-28T10:40:44;10.90;21.80
14057;DHT22;7103;54.300;10.180;2023-12-28T10:43:15;11.10;13.40
14057;DHT22;7103;54.300;10.180;2023-12-28T10:45:46;11.00;4.60
14057;DHT22;7103;54.300;10.180;2023-12-28T10:48:14;11.00;1.00
14057;DHT22;7103;54.300;10.180;2023-12-28T10:50:49;11.00;1.00
14057;DHT22;7103;54.300;10.180;2023-12-28T10:53:34;11.00;17.90
14057;DHT22;7103;54.300;10.180;2023-12-28T10:58:52;10.70;49.70
14057;DHT22;7103;54.300;10.180;2023-12-28T11:01:28;10.70;58.00
14057;DHT22;7103;54.300;10.180;2023-12-28T11:04:03;10.70;50.20
14057;DHT22;7103;54.300;10.180;2023-12-28T11:06:35;10.70;57.60
14057;DHT22;7103;54.300;10.180;2023-12-28T11:09:03;10.80;43.40
14057;DHT22;7103;54.300;10.180;2023-12-28T11:11:36;10.80;49.20
14057;DHT22;7103;54.300;10.180;2023-12-28T11:14:03;10.70;38.90
14057;DHT22;7103;54.300;10.180;2023-12-28T11:16:32;10.80;48.30
14057;DHT22;7103;54.300;10.180;2023-12-28T11:19:00;10.90;49.80
14057;DHT22;7103;54.300;10.180;2023-12-28T11:21:27;10.80;60.00
14057;DHT22;7103;54.300;10.180;2023-12-28T11:23:55;10.70;60.80
14057;DHT22;7103;54.300;10.180;2023-12-28T11:26:22;10.60;79.00
14057;DHT22;7103;54.300;10.180;2023-12-28T11:28:49;10.60;91.40
14057;DHT22;7103;54.300;10.180;2023-12-28T11:31:17;10.50;99.90
14057;DHT22;7103;54.300;10.180;2023-12-28T11:33:45;10.50;99.90
14057;DHT22;7103;54.300;10.180;2023-12-28T11:36:44;10.40;99.90
14057;DHT22;7103;54.300;10.180;2023-12-28T11:39:32;10.40;99.90
14057;DHT22;7103;54.300;10.180;2023-12-28T11:42:08;10.40;99.90
14057;DHT22;7103;54.300;10.180;2023-12-28T11:44:40;10.40;99.90
14057;DHT22;7103;54.300;10.180;2023-12-28T11:47:15;10.40;99.90
14057;DHT22;7103;54.300;10.180;2023-12-28T11:49:42;10.40;99.90
14057;DHT22;7103;54.300;10.180;2023-12-28T11:52:29;10.40;99.90
14057;DHT22;7103;54.300;10.180;2023-12-28T11:54:57;10.40;99.90
14057;DHT22;7103;54.300;10.180;2023-12-28T11:57:24;10.40;99.90
14057;DHT22;7103;54.300;10.180;2023-12-28T11:59:57;10.50;99.90
14057;DHT22;7103;54.300;10.180;2023-12-28T12:02:24;10.50;99.90
14057;DHT22;7103;54.300;10.180;2023-12-28T12:04:55;10.50;99.90
14057;DHT22;7103;54.300;10.180;2023-12-28T12:07:24;10.70;99.90
14057;DHT22;7103;54.300;10.180;2023-12-28T12:09:58;10.60;99.90
14057;DHT22;7103;54.300;10.180;2023-12-28T12:12:26;10.70;99.90
14057;DHT22;7103;54.300;10.180;2023-12-28T12:14:54;10.90;99.90
14057;DHT22;7103;54.300;10.180;2023-12-28T12:17:21;10.70;99.90
14057;DHT22;7103;54.300;10.180;2023-12-28T12:19:48;10.90;99.90
14057;DHT22;7103;54.300;10.180;2023-12-28T12:22:18;11.00;99.90
14057;DHT22;7103;54.300;10.180;2023-12-28T12:24:47;10.90;99.90
14057;DHT22;7103;54.300;10.180;2023-12-28T12:27:15;10.90;99.90
14057;DHT22;7103;54.300;10.180;2023-12-28T12:29:42;10.90;97.70
14057;DHT22;7103;54.300;10.180;2023-12-28T12:32:10;10.90;95.80
14057;DHT22;7103;54.300;10.180;2023-12-28T12:34:38;10.90;89.30
14057;DHT22;7103;54.300;10.180;2023-12-28T12:37:06;10.90;87.30
14057;DHT22;7103;54.300;10.180;2023-12-28T12:39:33;10.90;85.10
14057;DHT22;7103;54.300;10.180;2023-12-28T12:42:00;11.00;79.10
14057;DHT22;7103;54.300;10.180;2023-12-28T12:44:27;11.10;79.30
14057;DHT22;7103;54.300;10.180;2023-12-28T12:46:58;10.90;79.10
14057;DHT22;7103;54.300;10.180;2023-12-28T12:49:26;10.90;83.20
14057;DHT22;7103;54.300;10.180;2023-12-28T12:51:53;11.00;88.80
14057;DHT22;7103;54.300;10.180;2023-12-28T12:54:21;11.00;95.00
14057;DHT22;7103;54.300;10.180;2023-12-28T12:56:50;10.80;99.90
14057;DHT22;7103;54.300;10.180;2023-12-28T12:59:17;10.80;99.90
14057;DHT22;7103;54.300;10.180;2023-12-28T13:01:45;10.80;99.90
14057;DHT22;7103;54.300;10.180;2023-12-28T13:04:16;10.70;99.90
14057;DHT22;7103;54.300;10.180;2023-12-28T13:06:43;10.70;99.90
14057;DHT22;7103;54.300;10.180;2023-12-28T13:09:10;10.60;99.90
14057;DHT22;7103;54.300;10.180;2023-12-28T13:11:38;10.70;99.90
14057;DHT22;7103;54.300;10.180;2023-12-28T13:14:05;10.60;99.90
14057;DHT22;7103;54.300;10.180;2023-12-28T13:16:32;10.60;99.90
14057;DHT22;7103;54.300;10.180;2023-12-28T13:18:59;10.70;99.90
14057;DHT22;7103;54.300;10.180;2023-12-28T13:21:26;10.60;99.90
14057;DHT22;7103;54.300;10.180;2023-12-28T13:23:53;10.60;99.90
14057;DHT22;7103;54.300;10.180;2023-12-28T13:26:20;10.50;99.90
14057;DHT22;7103;54.300;10.180;2023-12-28T13:28:47;10.60;99.90
14057;DHT22;7103;54.300;10.180;2023-12-28T13:31:14;10.30;99.90
14057;DHT22;7103;54.300;10.180;2023-12-28T13:33:41;10.60;99.90
14057;DHT22;7103;54.300;10.180;2023-12-28T13:36:08;10.60;99.90
14057;DHT22;7103;54.300;10.180;2023-12-28T13:38:35;10.60;99.90
14057;DHT22;7103;54.300;10.180;2023-12-28T13:41:02;10.60;99.90
14057;DHT22;7103;54.300;10.180;2023-12-28T13:43:29;10.50;99.90
14057;DHT22;7103;54.300;10.180;2023-12-28T13:45:56;10.50;99.90
14057;DHT22;7103;54.300;10.180;2023-12-28T13:48:23;10.60;99.90
14057;DHT22;7103;54.300;10.180;2023-12-28T13:50:50;10.40;99.90
14057;DHT22;7103;54.300;10.180;2023-12-28T13:53:18;10.40;99.90
14057;DHT22;7103;54.300;10.180;2023-12-28T13:55:45;10.30;99.90
14057;DHT22;7103;54.300;10.180;2023-12-28T13:58:12;10.30;99.90
14057;DHT22;7103;54.300;10.180;2023-12-28T14:00:42;10.40;99.90
14057;DHT22;7103;54.300;10.180;2023-12-28T14:03:09;10.30;99.90
14057;DHT22;7103;54.300;10.180;2023-12-28T14:05:36;10.20;99.90
14057;DHT22;7103;54.300;10.180;2023-12-28T14:08:04;10.30;99.90
14057;DHT22;7103;54.300;10.180;2023-12-28T14:10:31;10.10;99.90
14057;DHT22;7103;54.300;10.180;2023-12-28T14:12:58;10.10;99.90
14057;DHT22;7103;54.300;10.180;2023-12-28T14:15:25;10.30;99.90
14057;DHT22;7103;54.300;10.180;2023-12-28T14:17:52;10.10;99.90
14057;DHT22;7103;54.300;10.180;2023-12-28T14:20:19;10.00;99.90
14057;DHT22;7103;54.300;10.180;2023-12-28T14:22:46;10.00;99.90
14057;DHT22;7103;54.300;10.180;2023-12-28T14:25:14;10.10;99.90
14057;DHT22;7103;54.300;10.180;2023-12-28T14:27:41;10.10;99.90
14057;DHT22;7103;54.300;10.180;2023-12-28T14:30:09;10.10;99.90
14057;DHT22;7103;54.300;10.180;2023-12-28T14:32:37;10.10;99.90
14057;DHT22;7103;54.300;10.180;2023-12-28T14:35:05;10.10;99.90
14057;DHT22;7103;54.300;10.180;2023-12-28T14:37:32;10.10;99.90
14057;DHT22;7103;54.300;10.180;2023-12-28T14:39:59;10.20;99.90
14057;DHT22;7103;54.300;10.180;2023-12-28T14:42:26;10.30;99.90
14057;DHT22;7103;54.300;10.180;2023-12-28T14:44:53;10.10;99.90
14057;DHT22;7103;54.300;10.180;2023-12-28T14:47:20;10.20;99.90
14057;DHT22;7103;54.300;10.180;2023-12-28T14:49:47;10.30;99.90
14057;DHT22;7103;54.300;10.180;2023-12-28T14:52:14;10.30;99.90
14057;DHT22;7103;54.300;10.180;2023-12-28T14:54:40;10.20;99.90
14057;DHT22;7103;54.300;10.180;2023-12-28T14:57:07;10.30;99.90
14057;DHT22;7103;54.300;10.180;2023-12-28T14:59:35;10.30;99.90
14057;DHT22;7103;54.300;10.180;2023-12-28T15:02:02;10.20;99.90
14057;DHT22;7103;54.300;10.180;2023-12-28T15:04:29;10.20;99.90
14057;DHT22;7103;54.300;10.180;2023-12-28T15:06:56;10.40;99.90
14057;DHT22;7103;54.300;10.180;2023-12-28T15:09:23;10.30;99.90
14057;DHT22;7103;54.300;10.180;2023-12-28T15:11:50;10.30;99.90
14057;DHT22;7103;54.300;10.180;2023-12-28T15:14:17;10.30;99.90
14057;DHT22;7103;54.300;10.180;2023-12-28T15:16:45;10.30;99.90
14057;DHT22;7103;54.300;10.180;2023-12-28T15:19:12;10.20;99.90
14057;DHT22;7103;54.300;10.180;2023-12-28T15:21:40;10.20;99.90
14057;DHT22;7103;54.300;10.180;2023-12-28T15:24:07;10.30;99.90
14057;DHT22;7103;54.300;10.180;2023-12-28T15:26:34;10.20;99.90
14057;DHT22;7103;54.300;10.180;2023-12-28T15:29:02;10.30;99.90
14057;DHT22;7103;54.300;10.180;2023-12-28T15:31:29;10.20;99.90
14057;DHT22;7103;54.300;10.180;2023-12-28T15:33:56;10.10;99.90
14057;DHT22;7103;54.300;10.180;2023-12-28T15:36:23;10.10;99.90
14057;DHT22;7103;54.300;10.180;2023-12-28T15:38:50;10.00;99.90
14057;DHT22;7103;54.300;10.180;2023-12-28T15:41:17;10.10;99.90
14057;DHT22;7103;54.300;10.180;2023-12-28T15:43:44;9.90;99.90
14057;DHT22;7103;54.300;10.180;2023-12-28T15:46:10;10.00;99.90
14057;DHT22;7103;54.300;10.180;2023-12-28T15:48:37;10.00;99.90
14057;DHT22;7103;54.300;10.180;2023-12-28T15:51:08;10.00;99.90
14057;DHT22;7103;54.300;10.180;2023-12-28T15:53:35;10.00;99.90
14057;DHT22;7103;54.300;10.180;2023-12-28T15:56:02;10.00;99.90
14057;DHT22;7103;54.300;10.180;2023-12-28T15:58:43;10.00;99.90